createdAt,value
2023-08-11T00:00:00.899Z,140.17834
2023-08-11T00:05:02.060Z,140.17834
2023-08-11T00:10:02.985Z,140.80511
2023-08-11T00:15:03.882Z,140.17834
2023-08-11T00:20:04.872Z,140.17834
2023-08-11T00:25:05.790Z,140.17834
2023-08-11T00:30:06.830Z,140.80511
2023-08-11T00:35:07.731Z,140.80511
2023-08-11T00:40:08.673Z,140.80511
2023-08-11T00:45:09.574Z,140.80511
2023-08-11T00:50:10.514Z,140.80511
2023-08-11T00:55:11.388Z,140.80511
2023-08-11T01:00:12.354Z,141.4359
2023-08-11T01:05:13.337Z,141.4359
2023-08-11T01:10:14.334Z,141.4359
2023-08-11T01:15:15.311Z,141.4359
2023-08-11T01:20:16.312Z,142.07074
2023-08-11T01:25:17.288Z,142.07074
2023-08-11T01:30:18.188Z,142.07074
2023-08-11T01:35:25.921Z,142.70968
2023-08-11T01:40:35.119Z,142.70968
2023-08-11T01:45:36.091Z,142.70968
2023-08-11T01:50:37.008Z,143.35275
2023-08-11T01:55:37.937Z,143.35275
2023-08-11T02:00:38.813Z,143.35275
2023-08-11T02:05:39.752Z,144.0
2023-08-11T02:10:40.632Z,144.0
2023-08-11T02:15:41.593Z,144.0
2023-08-11T02:20:42.514Z,144.0
2023-08-11T02:25:43.444Z,144.0
2023-08-11T02:30:44.407Z,144.0
2023-08-11T02:35:45.429Z,144.0
2023-08-11T02:40:46.366Z,144.0
2023-08-11T02:45:47.378Z,144.0
2023-08-11T02:50:48.309Z,144.0
2023-08-11T02:55:49.268Z,144.0
2023-08-11T03:00:50.248Z,144.0
2023-08-11T03:05:51.320Z,144.0
2023-08-11T03:10:57.259Z,144.0
2023-08-11T03:15:58.633Z,144.0
2023-08-11T03:21:13.563Z,144.0
2023-08-11T03:26:20.141Z,144.0
2023-08-11T03:31:21.062Z,144.0
2023-08-11T03:36:22.101Z,143.35275
2023-08-11T03:41:23.008Z,143.35275
2023-08-11T03:46:23.963Z,143.35275
2023-08-11T03:51:25.256Z,143.35275
2023-08-11T03:56:26.529Z,143.35275
2023-08-11T04:01:27.784Z,142.70968
2023-08-11T04:06:29.075Z,142.70968
2023-08-11T04:11:30.022Z,142.07074
2023-08-11T04:16:30.992Z,142.07074
2023-08-11T04:21:32.079Z,142.07074
2023-08-11T04:26:32.990Z,142.07074
2023-08-11T04:31:33.972Z,142.07074
2023-08-11T04:36:34.908Z,142.07074
2023-08-11T04:41:35.808Z,141.4359
2023-08-11T04:46:36.781Z,141.4359
2023-08-11T04:51:37.803Z,141.4359
2023-08-11T04:56:38.722Z,141.4359
2023-08-11T05:01:39.687Z,141.4359
2023-08-11T05:06:40.640Z,140.80511
2023-08-11T05:11:41.570Z,140.80511
2023-08-11T05:16:42.542Z,140.80511
2023-08-11T05:21:43.589Z,140.80511
2023-08-11T05:26:44.499Z,140.17834
2023-08-11T05:31:45.575Z,139.55556
2023-08-11T05:36:46.561Z,139.55556
2023-08-11T05:41:47.512Z,139.55556
2023-08-11T05:46:48.527Z,138.93671
2023-08-11T05:51:49.616Z,138.93671
2023-08-11T05:56:50.522Z,138.32177
2023-08-11T06:01:51.539Z,137.10345
2023-08-11T06:06:52.581Z,137.10345
2023-08-11T06:11:53.489Z,136.5
2023-08-11T06:16:54.466Z,135.90031
2023-08-11T06:21:55.389Z,135.30435
2023-08-11T06:26:56.323Z,135.30435
2023-08-11T06:31:57.565Z,135.30435
2023-08-11T06:36:58.533Z,134.71207
2023-08-11T06:41:59.451Z,135.90031
2023-08-11T06:47:00.361Z,134.71207
2023-08-11T06:52:01.477Z,135.90031
2023-08-11T06:57:02.429Z,134.71207
2023-08-11T07:02:03.564Z,133.53846
2023-08-11T07:07:04.529Z,133.53846
2023-08-11T07:12:05.415Z,134.12346
2023-08-11T07:17:06.506Z,134.12346
2023-08-11T07:22:07.570Z,132.95706
2023-08-11T07:27:08.637Z,132.95706
2023-08-11T07:32:09.729Z,131.80488
2023-08-11T07:37:11.037Z,131.23404
2023-08-11T07:42:12.156Z,131.80488
2023-08-11T07:47:13.083Z,131.80488
2023-08-11T07:52:14.011Z,132.3792
2023-08-11T07:57:16.894Z,130.66667
2023-08-11T08:02:19.302Z,129.54217
2023-08-11T08:07:20.212Z,129.54217
2023-08-11T08:12:21.214Z,132.3792
2023-08-11T08:17:22.148Z,130.10272
2023-08-11T08:22:23.081Z,128.98498
2023-08-11T08:27:24.038Z,127.8806
2023-08-11T08:32:25.062Z,131.23404
2023-08-11T08:37:26.326Z,129.54217
2023-08-11T08:42:27.561Z,130.10272
2023-08-11T08:47:28.790Z,131.23404
2023-08-11T08:52:29.731Z,129.54217
2023-08-11T08:57:30.648Z,129.54217
2023-08-11T09:02:31.762Z,130.66667
2023-08-11T09:07:32.815Z,127.8806
2023-08-11T09:12:33.806Z,128.98498
2023-08-11T09:17:34.883Z,128.98498
2023-08-11T09:22:35.850Z,132.3792
2023-08-11T09:27:36.734Z,134.12346
2023-08-11T09:32:37.675Z,134.71207
2023-08-11T09:37:38.637Z,130.66667
2023-08-11T09:42:39.565Z,127.8806
2023-08-11T09:47:40.577Z,117.03371
2023-08-11T09:52:41.589Z,120.0
2023-08-11T09:57:42.522Z,126.78932
2023-08-11T10:02:43.497Z,127.33333
2023-08-11T10:07:44.479Z,127.33333
2023-08-11T10:12:45.641Z,125.71091
2023-08-11T10:17:46.697Z,134.12346
2023-08-11T10:22:47.718Z,127.33333
2023-08-11T10:27:48.654Z,127.33333
2023-08-11T10:32:49.702Z,127.33333
2023-08-11T10:37:50.657Z,125.71091
2023-08-11T10:42:51.557Z,123.59184
2023-08-11T10:47:52.537Z,125.17647
2023-08-11T10:52:53.449Z,124.64516
2023-08-11T10:57:54.397Z,125.17647
2023-08-11T11:02:55.364Z,125.17647
2023-08-11T11:07:56.413Z,125.71091
2023-08-11T11:12:57.453Z,123.59184
2023-08-11T11:17:58.392Z,127.33333
2023-08-11T11:22:59.356Z,123.06977
2023-08-11T11:28:00.301Z,124.64516
2023-08-11T11:33:03.641Z,127.33333
2023-08-11T11:38:05.982Z,127.33333
2023-08-11T11:43:06.920Z,125.17647
2023-08-11T11:48:07.897Z,124.11696
2023-08-11T11:53:08.945Z,126.78932
2023-08-11T11:58:09.891Z,129.54217
2023-08-11T12:03:10.883Z,125.17647
2023-08-11T12:08:11.825Z,123.59184
2023-08-11T12:13:12.737Z,120.5043
2023-08-11T12:18:13.707Z,118.0113
2023-08-11T12:23:14.639Z,123.59184
2023-08-11T12:28:15.597Z,122.03468
2023-08-11T12:33:16.595Z,120.5043
2023-08-11T12:38:17.707Z,128.98498
2023-08-11T12:43:18.639Z,124.11696
2023-08-11T12:48:19.587Z,122.03468
2023-08-11T12:53:20.529Z,117.03371
2023-08-11T12:58:21.455Z,112.30601
2023-08-11T13:03:22.376Z,113.23077
2023-08-11T13:08:23.397Z,109.5914
2023-08-11T13:13:24.337Z,110.03774
2023-08-11T13:18:25.471Z,110.93767
2023-08-11T13:23:26.720Z,109.5914
2023-08-11T13:28:27.935Z,108.70588
2023-08-11T13:33:29.223Z,112.76712
2023-08-11T13:38:30.428Z,108.26667
2023-08-11T13:43:31.410Z,109.14745
2023-08-11T13:48:32.341Z,109.14745
2023-08-11T13:53:33.435Z,113.23077
2023-08-11T13:58:34.353Z,114.16575
2023-08-11T14:03:35.295Z,110.93767
2023-08-11T14:08:36.249Z,106.10526
2023-08-11T14:13:37.244Z,104.0
2023-08-11T14:18:38.231Z,102.76289
2023-08-11T14:23:39.179Z,104.0
2023-08-11T14:28:40.164Z,108.26667
2023-08-11T14:33:41.298Z,104.41667
2023-08-11T14:38:42.343Z,101.54476
2023-08-11T14:43:43.302Z,106.53298
2023-08-11T14:48:44.201Z,104.0
2023-08-11T14:53:45.157Z,102.35476
2023-08-11T14:58:46.124Z,104.83551
2023-08-11T15:03:47.076Z,104.83551
2023-08-11T15:08:48.192Z,105.25654
2023-08-11T15:13:49.205Z,104.0
2023-08-11T15:18:50.136Z,104.0
2023-08-11T15:23:51.068Z,103.58549
2023-08-11T15:28:52.004Z,101.94872
2023-08-11T15:33:52.909Z,103.17313
2023-08-11T15:38:53.869Z,103.58549
2023-08-11T15:43:54.902Z,105.67979
2023-08-11T15:48:55.905Z,104.41667
2023-08-11T15:53:56.933Z,104.0
2023-08-11T15:58:57.991Z,106.53298
2023-08-11T16:03:59.028Z,106.53298
2023-08-11T16:09:00.233Z,106.53298
2023-08-11T16:14:01.370Z,107.82979
2023-08-11T16:19:02.324Z,107.82979
2023-08-11T16:24:03.349Z,109.14745
2023-08-11T16:29:04.330Z,108.26667
2023-08-11T16:34:05.259Z,107.39523
2023-08-11T16:39:06.240Z,110.48649
2023-08-11T16:44:07.141Z,109.14745
2023-08-11T16:49:08.100Z,110.03774
2023-08-11T16:54:09.596Z,109.14745
2023-08-11T16:59:10.977Z,109.5914
2023-08-11T17:04:11.987Z,109.14745
2023-08-11T17:09:13.078Z,109.5914
2023-08-11T17:14:14.021Z,109.5914
2023-08-11T17:19:15.028Z,110.03774
2023-08-11T17:24:15.937Z,110.03774
2023-08-11T17:29:16.888Z,110.03774
2023-08-11T17:34:17.803Z,110.48649
2023-08-11T17:39:18.725Z,110.93767
2023-08-11T17:44:19.682Z,111.3913
2023-08-11T17:49:20.613Z,111.84741
2023-08-11T17:54:21.519Z,112.76712
2023-08-11T17:59:22.418Z,112.76712
2023-08-11T18:04:23.336Z,113.23077
2023-08-11T18:09:24.312Z,114.16575
2023-08-11T18:14:25.214Z,114.63712
2023-08-11T18:19:26.447Z,115.11111
2023-08-11T18:24:27.660Z,115.58774
2023-08-11T18:29:28.921Z,116.06704
2023-08-11T18:34:30.198Z,116.54902
2023-08-11T18:39:31.158Z,116.54902
2023-08-11T18:44:32.087Z,117.03371
2023-08-11T18:49:33.109Z,117.52113
2023-08-11T18:54:34.039Z,117.52113
2023-08-11T18:59:34.968Z,118.0113
2023-08-11T19:04:35.873Z,118.0113
2023-08-11T19:09:36.810Z,118.50425
2023-08-11T19:14:37.734Z,119.0
2023-08-11T19:19:38.654Z,119.49858
2023-08-11T19:24:39.594Z,120.0
2023-08-11T19:29:40.532Z,120.5043
2023-08-11T19:34:41.464Z,121.01149
2023-08-11T19:39:42.470Z,121.01149
2023-08-11T19:44:43.404Z,121.52161
2023-08-11T19:49:44.453Z,121.52161
2023-08-11T19:54:45.455Z,121.52161
2023-08-11T19:59:46.360Z,121.52161
2023-08-11T20:04:47.288Z,122.03468
2023-08-11T20:09:48.235Z,122.03468
2023-08-11T20:14:49.185Z,122.55072
2023-08-11T20:19:50.215Z,122.55072
2023-08-11T20:24:51.106Z,122.55072
2023-08-11T20:29:52.122Z,123.06977
2023-08-11T20:34:53.092Z,123.06977
2023-08-11T20:39:54.363Z,123.59184
2023-08-11T20:44:55.305Z,123.59184
2023-08-11T20:49:56.260Z,124.11696
2023-08-11T20:54:57.237Z,123.59184
2023-08-11T20:59:58.220Z,124.11696
2023-08-11T21:04:59.145Z,124.64516
2023-08-11T21:10:00.567Z,124.64516
2023-08-11T21:15:01.723Z,125.17647
2023-08-11T21:20:02.647Z,125.71091
2023-08-11T21:25:03.547Z,125.71091
2023-08-11T21:30:04.497Z,125.71091
2023-08-11T21:35:05.468Z,126.24852
2023-08-11T21:40:06.404Z,125.71091
2023-08-11T21:45:07.340Z,126.24852
2023-08-11T21:50:08.291Z,126.24852
2023-08-11T21:55:09.232Z,126.78932
2023-08-11T22:00:10.185Z,126.78932
2023-08-11T22:05:11.114Z,126.78932
2023-08-11T22:10:12.046Z,126.78932
2023-08-11T22:15:12.975Z,126.78932
2023-08-11T22:20:13.924Z,127.33333
2023-08-11T22:25:14.872Z,127.8806
2023-08-11T22:30:15.826Z,127.8806
2023-08-11T22:35:16.801Z,127.8806
2023-08-11T22:40:17.791Z,127.8806
2023-08-11T22:45:18.724Z,127.8806
2023-08-11T22:50:19.692Z,128.43114
2023-08-11T22:55:20.612Z,128.43114
2023-08-11T23:00:21.628Z,128.98498
2023-08-11T23:05:22.593Z,128.98498
2023-08-11T23:10:23.552Z,128.98498
2023-08-11T23:15:24.499Z,128.98498
2023-08-11T23:20:25.450Z,128.98498
2023-08-11T23:25:26.542Z,129.54217
2023-08-11T23:30:27.806Z,129.54217
2023-08-11T23:35:29.026Z,129.54217
2023-08-11T23:40:30.319Z,129.54217
2023-08-11T23:45:31.559Z,130.10272
2023-08-11T23:50:32.511Z,129.54217
2023-08-11T23:55:33.469Z,129.54217
